createdAt,value
2019-03-31T00:00:41.390Z,12.20
2019-03-31T00:01:41.362Z,12.40
2019-03-31T00:02:41.368Z,12.00
2019-03-31T00:03:41.342Z,12.40
2019-03-31T00:04:41.325Z,12.00
2019-03-31T00:05:41.389Z,12.40
2019-03-31T00:06:41.328Z,12.60
2019-03-31T00:07:41.292Z,11.90
2019-03-31T00:08:41.279Z,12.70
2019-03-31T00:09:41.268Z,12.50
2019-03-31T00:10:41.252Z,12.10
2019-03-31T00:11:41.259Z,12.50
2019-03-31T00:12:41.235Z,12.70
2019-03-31T00:13:41.217Z,12.60
2019-03-31T00:14:41.210Z,12.40
2019-03-31T00:15:41.196Z,12.30
2019-03-31T00:16:41.204Z,12.50
2019-03-31T00:17:41.178Z,12.70
2019-03-31T00:18:41.161Z,12.80
2019-03-31T00:19:41.154Z,12.60
2019-03-31T00:20:41.139Z,12.80
2019-03-31T00:21:41.148Z,12.10
2019-03-31T00:22:41.117Z,12.10
2019-03-31T00:23:41.105Z,11.80
2019-03-31T00:24:41.093Z,12.60
2019-03-31T00:25:41.108Z,12.10
2019-03-31T00:26:41.094Z,12.00
2019-03-31T00:27:41.061Z,12.90
2019-03-31T00:28:41.049Z,12.20
2019-03-31T00:29:41.038Z,11.90
2019-03-31T00:30:41.026Z,12.20
2019-03-31T00:31:41.057Z,12.50
2019-03-31T00:32:41.005Z,13.10
2019-03-31T00:33:40.993Z,12.60
2019-03-31T00:34:40.979Z,12.30
2019-03-31T00:35:40.998Z,12.40
2019-03-31T00:36:40.958Z,12.40
2019-03-31T00:37:40.996Z,13.10
2019-03-31T00:38:40.937Z,12.00
2019-03-31T00:39:40.927Z,11.50
2019-03-31T00:40:40.919Z,12.20
2019-03-31T00:41:40.903Z,11.60
2019-03-31T00:42:40.909Z,12.40
2019-03-31T00:43:40.904Z,12.70
2019-03-31T00:44:40.870Z,12.20
2019-03-31T00:45:40.859Z,12.30
2019-03-31T00:46:40.846Z,12.60
2019-03-31T00:47:40.857Z,12.40
2019-03-31T00:48:40.822Z,12.10
2019-03-31T00:49:40.814Z,12.20
2019-03-31T00:50:40.804Z,11.90
2019-03-31T00:51:40.792Z,12.80
2019-03-31T00:52:40.781Z,12.10
2019-03-31T00:53:40.788Z,12.20
2019-03-31T00:54:40.758Z,12.60
2019-03-31T00:55:40.747Z,12.50
2019-03-31T00:56:40.735Z,13.10
2019-03-31T00:57:40.722Z,12.70
2019-03-31T00:58:40.731Z,12.60
2019-03-31T00:59:40.702Z,13.10
2019-03-31T01:00:40.686Z,12.60
2019-03-31T01:01:40.678Z,12.40
2019-03-31T01:02:40.664Z,12.50
2019-03-31T01:03:40.735Z,12.70
2019-03-31T01:04:40.644Z,12.90
2019-03-31T01:05:40.632Z,12.40
2019-03-31T01:06:40.623Z,13.40
2019-03-31T01:07:40.608Z,12.50
2019-03-31T01:08:40.597Z,12.90
2019-03-31T01:09:40.604Z,12.50
2019-03-31T01:10:40.580Z,12.70
2019-03-31T01:11:40.563Z,12.20
2019-03-31T01:12:40.550Z,12.50
2019-03-31T01:13:40.542Z,13.30
2019-03-31T01:14:40.552Z,12.80
2019-03-31T01:15:40.517Z,13.00
2019-03-31T01:16:40.509Z,13.50
2019-03-31T01:17:40.498Z,12.60
2019-03-31T01:18:40.485Z,12.30
2019-03-31T01:19:40.498Z,12.90
2019-03-31T01:20:40.462Z,12.20
2019-03-31T01:21:40.453Z,12.80
2019-03-31T01:22:40.437Z,13.30
2019-03-31T01:23:40.425Z,12.30
2019-03-31T01:24:40.431Z,12.50
2019-03-31T01:25:40.402Z,12.50
2019-03-31T01:26:40.403Z,12.80
2019-03-31T01:27:40.381Z,12.70
2019-03-31T01:28:40.368Z,12.40
2019-03-31T01:29:40.380Z,12.10
2019-03-31T01:30:40.346Z,12.00
2019-03-31T01:31:50.342Z,12.60
2019-03-31T01:32:41.327Z,12.40
2019-03-31T01:33:40.311Z,11.70
2019-03-31T01:34:40.308Z,11.80
2019-03-31T01:35:40.353Z,11.80
2019-03-31T01:36:40.280Z,13.00
2019-03-31T01:37:40.265Z,12.20
2019-03-31T01:38:40.262Z,12.40
2019-03-31T01:39:40.244Z,12.10
2019-03-31T01:40:40.250Z,12.00
2019-03-31T01:41:40.220Z,12.60
2019-03-31T01:42:40.209Z,12.30
2019-03-31T01:43:40.198Z,12.90
2019-03-31T01:44:40.187Z,12.30
2019-03-31T01:45:40.214Z,12.80
2019-03-31T01:46:40.161Z,12.00
2019-03-31T01:47:40.157Z,12.40
2019-03-31T01:48:40.140Z,12.10
2019-03-31T01:49:40.131Z,11.90
2019-03-31T01:50:40.138Z,12.30
2019-03-31T01:51:40.110Z,12.00
2019-03-31T01:52:40.098Z,12.10
2019-03-31T01:53:40.084Z,12.10
2019-03-31T01:54:40.085Z,12.10
2019-03-31T01:55:40.105Z,12.20
2019-03-31T01:56:40.050Z,12.40
2019-03-31T01:57:40.039Z,12.20
2019-03-31T01:58:40.029Z,12.20
2019-03-31T01:59:40.016Z,12.10
2019-03-31T02:00:40.009Z,12.20
2019-03-31T02:01:40.013Z,12.60
2019-03-31T02:02:39.984Z,12.30
2019-03-31T02:03:39.973Z,12.40
2019-03-31T02:04:39.961Z,12.20
2019-03-31T02:05:39.950Z,12.20
2019-03-31T02:06:39.954Z,11.80
2019-03-31T02:07:39.925Z,12.10
2019-03-31T02:08:39.915Z,12.20
2019-03-31T02:09:39.904Z,12.40
2019-03-31T02:10:39.894Z,11.90
2019-03-31T02:11:39.905Z,13.00
2019-03-31T02:12:39.869Z,12.40
2019-03-31T02:13:39.860Z,12.60
2019-03-31T02:14:39.849Z,12.00
2019-03-31T02:15:39.838Z,13.10
2019-03-31T02:16:39.830Z,11.80
2019-03-31T02:17:39.833Z,12.60
2019-03-31T02:18:39.829Z,12.60
2019-03-31T02:19:39.790Z,13.10
2019-03-31T02:20:39.778Z,12.50
2019-03-31T02:21:39.769Z,12.40
2019-03-31T02:22:39.775Z,12.90
2019-03-31T02:23:39.746Z,13.10
2019-03-31T02:24:39.732Z,12.70
2019-03-31T02:25:39.723Z,12.30
2019-03-31T02:26:39.713Z,12.90
2019-03-31T02:27:39.717Z,12.70
2019-03-31T02:28:39.692Z,12.60
2019-03-31T02:29:39.677Z,12.90
2019-03-31T02:30:39.666Z,12.90
2019-03-31T02:31:39.658Z,13.60
2019-03-31T02:32:39.667Z,13.00
2019-03-31T02:33:39.634Z,13.40
2019-03-31T02:34:39.625Z,13.70
2019-03-31T02:35:39.609Z,13.00
2019-03-31T02:36:39.599Z,12.50
2019-03-31T02:37:39.656Z,12.80
2019-03-31T02:38:39.595Z,12.60
2019-03-31T02:39:39.565Z,13.00
2019-03-31T02:40:39.555Z,12.00
2019-03-31T02:41:39.548Z,12.30
2019-03-31T02:42:39.545Z,12.90
2019-03-31T02:43:39.519Z,12.60
2019-03-31T02:44:39.529Z,13.50
2019-03-31T02:45:39.582Z,12.30
2019-03-31T02:46:39.571Z,12.40
2019-03-31T02:47:39.489Z,12.20
2019-03-31T02:48:39.462Z,13.30
2019-03-31T02:49:39.474Z,12.70
2019-03-31T02:50:39.437Z,13.80
2019-03-31T02:51:39.427Z,13.20
2019-03-31T02:52:39.440Z,13.40
2019-03-31T02:53:39.405Z,13.30
2019-03-31T02:54:39.394Z,14.30
2019-03-31T02:56:32.905Z,12.90
2019-03-31T02:57:32.917Z,13.40
2019-03-31T02:58:32.930Z,14.10
2019-03-31T02:59:32.873Z,13.20
2019-03-31T03:00:32.861Z,13.40
2019-03-31T03:01:32.849Z,13.40
2019-03-31T03:02:41.721Z,12.80
2019-03-31T03:03:33.844Z,13.00
2019-03-31T03:04:32.818Z,13.70
2019-03-31T03:05:32.807Z,13.00
2019-03-31T03:06:32.792Z,13.30
2019-03-31T03:07:32.777Z,13.50
2019-03-31T03:08:32.785Z,14.10
2019-03-31T03:09:32.780Z,13.20
2019-03-31T03:10:32.767Z,14.00
2019-03-31T03:11:32.732Z,13.70
2019-03-31T03:12:32.721Z,13.70
2019-03-31T03:13:32.729Z,13.30
2019-03-31T03:14:32.698Z,14.10
2019-03-31T03:15:32.686Z,13.30
2019-03-31T03:16:32.678Z,13.50
2019-03-31T03:17:32.665Z,13.70
2019-03-31T03:18:32.648Z,13.70
2019-03-31T03:19:32.660Z,13.20
2019-03-31T03:20:32.634Z,13.10
2019-03-31T03:21:32.617Z,13.10
2019-03-31T03:22:32.606Z,13.60
2019-03-31T03:23:32.592Z,13.90
2019-03-31T03:24:32.599Z,12.90
2019-03-31T03:25:32.568Z,13.10
2019-03-31T03:26:32.557Z,12.80
2019-03-31T03:27:32.547Z,13.30
2019-03-31T03:28:32.536Z,13.20
2019-03-31T03:29:32.543Z,13.00
2019-03-31T03:30:32.590Z,13.00
2019-03-31T03:31:32.517Z,13.40
2019-03-31T03:32:32.490Z,13.40
2019-03-31T03:33:32.478Z,13.80
2019-03-31T03:34:32.511Z,13.20
2019-03-31T03:35:32.468Z,13.20
2019-03-31T03:36:32.468Z,12.90
2019-03-31T03:37:32.432Z,13.30
2019-03-31T03:38:32.421Z,13.30
2019-03-31T03:39:32.434Z,12.70
2019-03-31T03:40:32.396Z,13.50
2019-03-31T03:41:32.387Z,13.40
2019-03-31T03:42:32.374Z,14.50
2019-03-31T03:43:32.360Z,13.50
2019-03-31T03:44:32.348Z,14.40
2019-03-31T03:45:32.356Z,13.60
2019-03-31T03:46:32.438Z,13.40
2019-03-31T03:47:32.312Z,13.40
2019-03-31T03:48:32.305Z,13.60
2019-03-31T03:49:32.300Z,13.30
2019-03-31T03:50:32.304Z,13.50
2019-03-31T03:51:32.269Z,12.90
2019-03-31T03:52:32.262Z,13.30
2019-03-31T03:53:32.248Z,13.30
2019-03-31T03:54:32.234Z,12.60
2019-03-31T03:55:32.241Z,13.80
2019-03-31T03:56:32.210Z,14.00
2019-03-31T03:57:32.200Z,14.10
2019-03-31T03:58:32.187Z,13.90
2019-03-31T03:59:32.177Z,14.20
2019-03-31T04:00:32.185Z,14.50
2019-03-31T04:01:32.155Z,15.20
2019-03-31T04:02:32.142Z,13.80
2019-03-31T04:03:32.133Z,14.10
2019-03-31T04:04:32.119Z,13.90
2019-03-31T04:05:32.108Z,14.00
2019-03-31T04:06:32.125Z,14.10
2019-03-31T04:07:32.084Z,14.40
2019-03-31T04:08:32.073Z,14.50
2019-03-31T04:09:32.070Z,14.70
2019-03-31T04:10:32.048Z,14.50
2019-03-31T04:11:32.058Z,13.90
2019-03-31T04:12:32.026Z,13.90
2019-03-31T04:13:32.015Z,13.90
2019-03-31T04:14:32.003Z,14.10
2019-03-31T04:15:31.991Z,14.10
2019-03-31T04:16:32.043Z,13.60
2019-03-31T04:17:31.966Z,14.00
2019-03-31T04:18:31.957Z,14.10
2019-03-31T04:19:31.959Z,14.10
2019-03-31T04:20:31.937Z,14.30
2019-03-31T04:21:31.946Z,14.50
2019-03-31T04:22:31.914Z,14.30
2019-03-31T04:23:31.898Z,14.50
2019-03-31T04:24:31.887Z,13.90
2019-03-31T04:25:31.877Z,14.00
2019-03-31T04:26:31.887Z,14.60
2019-03-31T04:27:31.853Z,14.00
2019-03-31T04:28:31.839Z,14.40
2019-03-31T04:29:31.829Z,14.10
2019-03-31T04:30:31.959Z,13.40
2019-03-31T04:31:31.808Z,13.60
2019-03-31T04:32:31.815Z,14.20
2019-03-31T04:33:49.723Z,13.10
2019-03-31T04:34:32.775Z,13.00
2019-03-31T04:35:31.780Z,13.40
2019-03-31T04:36:31.749Z,13.20
2019-03-31T04:37:31.758Z,13.20
2019-03-31T04:38:31.727Z,13.60
2019-03-31T04:39:31.715Z,13.70
2019-03-31T04:40:31.707Z,14.20
2019-03-31T04:41:31.693Z,14.10
2019-03-31T04:42:31.707Z,14.00
2019-03-31T04:43:31.673Z,13.70
2019-03-31T04:44:31.711Z,14.70
2019-03-31T04:45:31.654Z,13.90
2019-03-31T04:46:31.634Z,14.60
2019-03-31T04:47:31.622Z,14.70
2019-03-31T04:48:31.631Z,15.20
2019-03-31T04:49:31.601Z,14.10
2019-03-31T04:50:31.589Z,14.20
2019-03-31T04:51:31.576Z,13.60
2019-03-31T04:52:31.565Z,14.00
2019-03-31T04:53:31.571Z,14.00
2019-03-31T04:54:31.541Z,14.70
2019-03-31T04:55:31.533Z,13.80
2019-03-31T04:56:31.517Z,13.90
2019-03-31T04:57:31.509Z,14.00
2019-03-31T04:58:31.514Z,14.10
2019-03-31T04:59:31.487Z,13.70
2019-03-31T05:00:31.475Z,14.50
2019-03-31T05:01:31.461Z,13.90
2019-03-31T05:02:31.445Z,34.30
2019-03-31T05:03:31.517Z,41.90
2019-03-31T05:04:31.425Z,15.50
2019-03-31T05:05:31.413Z,14.10
2019-03-31T05:06:31.401Z,14.00
2019-03-31T05:07:31.388Z,13.90
2019-03-31T05:08:31.397Z,13.70
2019-03-31T05:09:31.363Z,14.90
2019-03-31T05:10:31.352Z,14.30
2019-03-31T05:11:31.338Z,13.80
2019-03-31T05:12:31.331Z,13.70
2019-03-31T05:13:31.343Z,14.20
2019-03-31T05:14:31.305Z,14.30
2019-03-31T05:15:31.293Z,14.20
2019-03-31T05:16:31.282Z,14.40
2019-03-31T05:17:31.273Z,14.20
2019-03-31T05:18:31.261Z,13.70
2019-03-31T05:19:31.265Z,13.90
2019-03-31T05:20:31.237Z,13.90
2019-03-31T05:21:31.288Z,14.10
2019-03-31T05:22:31.220Z,14.20
2019-03-31T05:23:31.201Z,14.70
2019-03-31T05:24:31.207Z,14.80
2019-03-31T05:25:31.179Z,14.60
2019-03-31T05:26:31.166Z,14.30
2019-03-31T05:27:31.154Z,14.50
2019-03-31T05:28:31.145Z,14.30
2019-03-31T05:29:31.151Z,14.30
2019-03-31T05:30:31.120Z,14.40
2019-03-31T05:31:31.107Z,14.30
2019-03-31T05:32:31.098Z,15.10
2019-03-31T05:33:31.083Z,14.50
2019-03-31T05:34:31.114Z,14.10
2019-03-31T05:35:31.060Z,14.20
2019-03-31T05:36:31.054Z,14.80
2019-03-31T05:37:31.037Z,14.20
2019-03-31T05:38:31.026Z,14.80
2019-03-31T05:39:31.018Z,15.30
2019-03-31T05:40:31.036Z,15.00
2019-03-31T05:41:30.992Z,15.10
2019-03-31T05:42:30.978Z,14.70
2019-03-31T05:43:30.967Z,14.70
2019-03-31T05:44:30.956Z,15.40
2019-03-31T05:45:30.965Z,14.50
2019-03-31T05:46:30.935Z,14.70
2019-03-31T05:47:30.920Z,14.90
2019-03-31T05:48:30.914Z,14.70
2019-03-31T05:49:30.899Z,15.10
2019-03-31T05:50:30.906Z,15.60
2019-03-31T05:51:30.963Z,15.40
2019-03-31T05:52:30.862Z,15.90
2019-03-31T05:53:30.853Z,16.00
2019-03-31T05:54:30.845Z,15.20
2019-03-31T05:55:30.852Z,16.40
2019-03-31T05:56:30.819Z,18.50
2019-03-31T05:57:30.803Z,15.70
2019-03-31T05:58:30.793Z,15.40
2019-03-31T05:59:30.782Z,15.90
2019-03-31T06:00:30.773Z,15.50
2019-03-31T06:01:30.776Z,16.20
2019-03-31T06:02:30.749Z,16.40
2019-03-31T06:03:30.735Z,17.90
2019-03-31T06:04:33.476Z,18.00
2019-03-31T06:05:30.714Z,21.80
2019-03-31T06:06:30.731Z,23.60
2019-03-31T06:07:30.688Z,25.00
2019-03-31T06:08:30.680Z,22.10
2019-03-31T06:09:30.667Z,19.70
2019-03-31T06:10:30.654Z,19.10
2019-03-31T06:11:30.665Z,20.20
2019-03-31T06:12:30.633Z,20.00
2019-03-31T06:13:30.623Z,22.80
2019-03-31T06:14:30.610Z,23.80
2019-03-31T06:15:30.598Z,22.80
2019-03-31T06:16:30.604Z,25.50
2019-03-31T06:17:30.577Z,24.30
2019-03-31T06:18:30.565Z,24.00
2019-03-31T06:19:30.556Z,26.60
2019-03-31T06:20:30.540Z,26.60
2019-03-31T06:21:30.560Z,26.20
2019-03-31T06:22:30.518Z,27.30
2019-03-31T06:23:30.506Z,26.40
2019-03-31T06:24:30.512Z,25.80
2019-03-31T06:25:30.487Z,27.20
2019-03-31T06:26:30.493Z,26.70
2019-03-31T06:27:30.466Z,26.70
2019-03-31T06:28:30.448Z,26.90
2019-03-31T06:29:30.441Z,26.60
2019-03-31T06:30:30.434Z,27.80
2019-03-31T06:31:30.415Z,27.50
2019-03-31T06:32:30.424Z,26.20
2019-03-31T06:33:30.391Z,27.50
2019-03-31T06:34:30.386Z,27.30
2019-03-31T06:35:30.371Z,27.60
2019-03-31T06:36:30.357Z,28.30
2019-03-31T06:37:30.366Z,29.40
2019-03-31T06:38:30.332Z,50.00
2019-03-31T06:39:30.324Z,32.60
2019-03-31T06:40:30.310Z,28.80
2019-03-31T06:41:30.300Z,27.10
2019-03-31T06:42:30.308Z,27.90
2019-03-31T06:43:30.279Z,28.00
2019-03-31T06:44:30.265Z,28.40
2019-03-31T06:45:30.255Z,28.20
2019-03-31T06:46:30.245Z,27.50
2019-03-31T06:47:30.278Z,27.50
2019-03-31T06:48:30.221Z,26.00
2019-03-31T06:49:30.210Z,25.90
2019-03-31T06:50:30.199Z,26.90
2019-03-31T06:51:30.186Z,26.90
2019-03-31T06:52:30.173Z,25.90
2019-03-31T06:53:30.180Z,25.60
2019-03-31T06:54:30.152Z,25.90
2019-03-31T06:55:30.141Z,25.10
2019-03-31T06:56:30.130Z,24.30
2019-03-31T06:57:30.117Z,25.60
2019-03-31T06:58:30.126Z,24.70
2019-03-31T06:59:30.096Z,24.90
2019-03-31T07:00:30.082Z,24.30
2019-03-31T07:01:30.071Z,24.70
2019-03-31T07:02:30.384Z,24.70
2019-03-31T07:03:30.066Z,24.00
2019-03-31T07:04:30.036Z,24.90
2019-03-31T07:05:30.026Z,23.20
2019-03-31T07:06:30.014Z,23.90
2019-03-31T07:07:30.004Z,24.20
2019-03-31T07:08:30.011Z,58.00
2019-03-31T07:09:29.999Z,26.50
2019-03-31T07:10:29.970Z,24.50
2019-03-31T07:11:29.958Z,23.20
2019-03-31T07:12:29.946Z,23.70
2019-03-31T07:13:29.941Z,23.60
2019-03-31T07:14:29.940Z,23.30
2019-03-31T07:15:29.911Z,23.50
2019-03-31T07:16:29.901Z,23.10
2019-03-31T07:17:29.888Z,23.30
2019-03-31T07:18:29.878Z,23.40
2019-03-31T07:19:29.890Z,23.20
2019-03-31T07:20:29.897Z,23.40
2019-03-31T07:21:29.840Z,23.00
2019-03-31T07:22:29.834Z,22.70
2019-03-31T07:23:29.817Z,22.60
2019-03-31T07:24:29.833Z,22.70
2019-03-31T07:25:29.795Z,23.10
2019-03-31T07:26:29.784Z,22.00
2019-03-31T07:27:29.770Z,23.00
2019-03-31T07:28:29.762Z,23.40
2019-03-31T07:29:29.751Z,22.40
2019-03-31T07:30:29.755Z,21.60
2019-03-31T07:31:29.724Z,22.10
2019-03-31T07:32:29.711Z,21.70
2019-03-31T07:33:29.699Z,21.40
2019-03-31T07:34:29.690Z,21.00
2019-03-31T07:35:29.698Z,21.80
2019-03-31T07:36:29.667Z,21.20
2019-03-31T07:37:29.652Z,21.90
2019-03-31T07:38:38.800Z,21.80
2019-03-31T07:39:30.933Z,21.70
2019-03-31T07:40:29.894Z,21.70
2019-03-31T07:41:29.763Z,21.60
2019-03-31T07:42:29.629Z,19.90
2019-03-31T07:43:29.583Z,21.40
2019-03-31T07:44:29.577Z,21.40
2019-03-31T07:45:29.601Z,21.10
2019-03-31T07:46:29.552Z,21.70
2019-03-31T07:47:29.537Z,21.50
2019-03-31T07:48:29.527Z,22.10
2019-03-31T07:49:29.519Z,21.10
2019-03-31T07:50:29.503Z,20.80
2019-03-31T07:51:29.510Z,20.40
2019-03-31T07:52:29.483Z,20.40
2019-03-31T07:53:29.469Z,20.90
2019-03-31T07:54:29.457Z,20.60
2019-03-31T07:55:29.448Z,21.50
2019-03-31T07:56:29.458Z,21.20
2019-03-31T07:57:29.425Z,21.50
2019-03-31T07:58:29.486Z,20.40
2019-03-31T07:59:29.419Z,20.60
2019-03-31T08:00:29.388Z,19.90
2019-03-31T08:01:29.395Z,20.80
2019-03-31T08:02:29.364Z,20.20
2019-03-31T08:03:29.356Z,19.70
2019-03-31T08:04:29.343Z,20.60
2019-03-31T08:05:33.366Z,20.10
2019-03-31T08:06:30.338Z,20.10
2019-03-31T08:07:29.305Z,19.50
2019-03-31T08:08:29.297Z,19.80
2019-03-31T08:09:29.282Z,18.90
2019-03-31T08:10:29.270Z,20.20
2019-03-31T08:11:29.276Z,19.40
2019-03-31T08:12:29.245Z,18.80
2019-03-31T08:13:29.237Z,19.30
2019-03-31T08:14:29.222Z,20.20
2019-03-31T08:15:29.220Z,20.80
2019-03-31T08:16:29.217Z,19.90
2019-03-31T08:17:29.187Z,19.50
2019-03-31T08:18:29.177Z,20.70
2019-03-31T08:19:29.164Z,19.30
2019-03-31T08:20:29.156Z,20.40
2019-03-31T08:21:29.162Z,20.70
2019-03-31T08:22:29.131Z,19.90
2019-03-31T08:23:29.117Z,20.40
2019-03-31T08:24:29.106Z,19.80
2019-03-31T08:25:29.093Z,20.70
2019-03-31T08:26:29.083Z,20.20
2019-03-31T08:27:29.088Z,20.20
2019-03-31T08:28:29.058Z,20.40
2019-03-31T08:29:29.055Z,20.50
2019-03-31T08:30:29.037Z,21.00
2019-03-31T08:31:29.025Z,20.30
2019-03-31T08:32:29.031Z,20.90
2019-03-31T08:33:29.002Z,19.90
2019-03-31T08:34:28.989Z,20.30
2019-03-31T08:35:28.978Z,20.80
2019-03-31T08:36:28.965Z,19.80
2019-03-31T08:37:28.970Z,19.50
2019-03-31T08:38:28.940Z,20.80
2019-03-31T08:39:28.929Z,20.20
2019-03-31T08:40:28.921Z,19.90
2019-03-31T08:41:28.906Z,20.60
2019-03-31T08:42:28.913Z,20.70
2019-03-31T08:43:28.881Z,20.30
2019-03-31T08:44:28.870Z,20.20
2019-03-31T08:45:30.382Z,19.90
2019-03-31T08:46:28.848Z,20.60
2019-03-31T08:47:28.835Z,20.20
2019-03-31T08:48:28.848Z,20.10
2019-03-31T08:49:28.809Z,19.40
2019-03-31T08:50:28.797Z,19.20
2019-03-31T08:51:28.791Z,18.70
2019-03-31T08:52:28.774Z,19.80
2019-03-31T08:53:28.781Z,19.80
2019-03-31T08:54:28.821Z,19.70
2019-03-31T08:55:28.740Z,18.90
2019-03-31T08:56:35.767Z,18.10
2019-03-31T08:57:28.714Z,18.20
2019-03-31T08:58:28.722Z,18.00
2019-03-31T08:59:28.692Z,17.40
2019-03-31T09:00:28.680Z,18.20
2019-03-31T09:01:28.668Z,17.10
2019-03-31T09:02:28.658Z,17.30
2019-03-31T09:03:28.666Z,17.40
2019-03-31T09:04:28.634Z,17.40
2019-03-31T09:05:28.621Z,17.30
2019-03-31T09:06:28.615Z,17.10
2019-03-31T09:07:28.597Z,16.40
2019-03-31T09:08:28.587Z,16.60
2019-03-31T09:09:28.593Z,16.10
2019-03-31T09:10:28.562Z,16.90
2019-03-31T09:11:28.553Z,16.50
2019-03-31T09:12:28.581Z,16.10
2019-03-31T09:13:28.532Z,15.60
2019-03-31T09:14:28.534Z,15.40
2019-03-31T09:15:28.507Z,15.20
2019-03-31T09:16:28.498Z,14.70
2019-03-31T09:17:28.480Z,13.90
2019-03-31T09:18:28.470Z,26.00
2019-03-31T09:19:28.482Z,64.90
2019-03-31T09:20:28.451Z,41.30
2019-03-31T09:21:28.434Z,13.60
2019-03-31T09:22:28.421Z,12.80
2019-03-31T09:23:28.469Z,12.90
2019-03-31T09:24:28.399Z,13.20
2019-03-31T09:25:28.406Z,13.60
2019-03-31T09:26:28.378Z,12.30
2019-03-31T09:27:28.365Z,13.50
2019-03-31T09:28:28.356Z,12.50
2019-03-31T09:29:28.346Z,12.00
2019-03-31T09:30:28.351Z,12.00
2019-03-31T09:31:28.316Z,12.00
2019-03-31T09:32:28.305Z,12.30
2019-03-31T09:33:28.292Z,11.30
2019-03-31T09:34:28.284Z,11.40
2019-03-31T09:35:28.327Z,11.70
2019-03-31T09:36:28.262Z,11.60
2019-03-31T09:37:28.245Z,12.10
2019-03-31T09:38:28.238Z,11.00
2019-03-31T09:39:28.224Z,11.80
2019-03-31T09:40:28.275Z,11.80
2019-03-31T09:41:28.202Z,11.60
2019-03-31T09:42:28.192Z,11.50
2019-03-31T09:43:28.178Z,11.40
2019-03-31T09:44:30.318Z,11.40
2019-03-31T09:45:28.171Z,11.40
2019-03-31T09:46:28.218Z,11.20
2019-03-31T09:47:28.129Z,11.20
2019-03-31T09:48:28.121Z,11.40
2019-03-31T09:49:28.107Z,11.10
2019-03-31T09:50:28.099Z,10.10
2019-03-31T09:51:28.105Z,10.30
2019-03-31T09:52:28.075Z,10.30
2019-03-31T09:53:28.065Z,10.30
2019-03-31T09:54:28.053Z,10.30
2019-03-31T09:55:28.048Z,9.70
2019-03-31T09:56:28.056Z,9.60
2019-03-31T09:57:28.017Z,10.00
2019-03-31T09:58:28.012Z,10.40
2019-03-31T09:59:27.994Z,9.90
2019-03-31T10:00:27.983Z,10.70
2019-03-31T10:01:27.973Z,10.30
2019-03-31T10:02:27.977Z,10.10
2019-03-31T10:03:27.951Z,10.40
2019-03-31T10:04:27.939Z,9.90
2019-03-31T10:05:27.928Z,10.10
2019-03-31T10:06:30.446Z,10.20
2019-03-31T10:07:27.921Z,10.10
2019-03-31T10:08:27.896Z,10.00
2019-03-31T10:09:27.882Z,9.60
2019-03-31T10:10:27.870Z,10.00
2019-03-31T10:11:27.862Z,10.40
2019-03-31T10:12:27.869Z,10.20
2019-03-31T10:13:27.835Z,9.70
2019-03-31T10:14:27.829Z,9.80
2019-03-31T10:15:27.825Z,9.60
2019-03-31T10:16:27.802Z,9.60
2019-03-31T10:17:27.791Z,9.20
2019-03-31T10:18:27.795Z,9.50
2019-03-31T10:19:27.765Z,9.80
2019-03-31T10:20:31.156Z,9.00
2019-03-31T10:21:27.743Z,9.30
2019-03-31T10:22:27.734Z,9.40
2019-03-31T10:23:27.736Z,8.70
2019-03-31T10:24:27.710Z,8.80
2019-03-31T10:25:27.698Z,8.80
2019-03-31T10:26:32.219Z,8.40
2019-03-31T10:27:27.678Z,8.50
2019-03-31T10:28:27.681Z,8.70
2019-03-31T10:29:27.652Z,7.80
2019-03-31T10:30:27.641Z,8.30
2019-03-31T10:31:27.628Z,8.00
2019-03-31T10:32:27.617Z,8.30
2019-03-31T10:33:27.626Z,8.50
2019-03-31T10:34:27.591Z,8.50
2019-03-31T10:35:27.579Z,8.30
2019-03-31T10:36:27.579Z,8.30
2019-03-31T10:37:27.557Z,8.10
2019-03-31T10:38:27.545Z,8.10
2019-03-31T10:39:27.553Z,7.80
2019-03-31T10:40:27.525Z,7.80
2019-03-31T10:41:30.706Z,8.30
2019-03-31T10:42:27.501Z,7.70
2019-03-31T10:43:27.489Z,7.40
2019-03-31T10:44:27.502Z,7.80
2019-03-31T10:45:27.467Z,7.50
2019-03-31T10:46:27.450Z,8.00
2019-03-31T10:47:27.449Z,8.30
2019-03-31T10:48:27.438Z,7.70
2019-03-31T10:49:27.436Z,7.80
2019-03-31T10:50:27.405Z,8.00
2019-03-31T10:51:27.392Z,7.90
2019-03-31T10:52:27.382Z,8.40
2019-03-31T10:53:27.374Z,8.50
2019-03-31T10:54:27.381Z,8.30
2019-03-31T10:55:27.348Z,7.80
2019-03-31T10:56:27.336Z,7.30
2019-03-31T10:57:27.342Z,7.50
2019-03-31T10:58:27.313Z,7.20
2019-03-31T10:59:27.325Z,7.40
2019-03-31T11:00:27.287Z,7.20
2019-03-31T11:01:27.277Z,7.80
2019-03-31T11:02:27.267Z,6.90
2019-03-31T11:03:27.254Z,7.30
2019-03-31T11:04:27.242Z,7.70
2019-03-31T11:05:27.252Z,8.10
2019-03-31T11:06:27.219Z,8.20
2019-03-31T11:07:27.209Z,7.40
2019-03-31T11:08:27.194Z,7.30
2019-03-31T11:09:27.183Z,7.50
2019-03-31T11:10:27.191Z,7.40
2019-03-31T11:11:27.161Z,7.20
2019-03-31T11:12:27.150Z,7.60
2019-03-31T11:13:27.139Z,7.10
2019-03-31T11:14:27.125Z,17.30
2019-03-31T11:15:27.133Z,29.30
2019-03-31T11:16:27.105Z,48.50
2019-03-31T11:17:27.091Z,8.50
2019-03-31T11:18:27.080Z,7.00
2019-03-31T11:19:27.069Z,6.80
2019-03-31T11:20:27.077Z,6.70
2019-03-31T11:21:27.044Z,7.00
2019-03-31T11:22:27.034Z,6.60
2019-03-31T11:23:27.023Z,7.00
2019-03-31T11:24:27.011Z,6.80
2019-03-31T11:25:29.364Z,6.80
2019-03-31T11:26:27.007Z,7.20
2019-03-31T11:27:26.977Z,6.50
2019-03-31T11:28:26.966Z,6.50
2019-03-31T11:29:26.953Z,6.30
2019-03-31T11:30:26.945Z,6.40
2019-03-31T11:31:26.948Z,6.40
2019-03-31T11:32:26.920Z,6.30
2019-03-31T11:33:26.984Z,26.10
2019-03-31T11:34:26.897Z,16.70
2019-03-31T11:35:26.886Z,15.90
2019-03-31T11:36:26.897Z,7.60
2019-03-31T11:37:26.862Z,7.20
2019-03-31T11:38:26.892Z,7.00
2019-03-31T11:39:26.838Z,6.00
2019-03-31T11:40:26.829Z,6.00
2019-03-31T11:41:26.819Z,6.10
2019-03-31T11:42:26.822Z,6.20
2019-03-31T11:43:26.792Z,6.30
2019-03-31T11:44:27.836Z,6.40
2019-03-31T11:45:26.767Z,6.50
2019-03-31T11:46:26.757Z,6.50
2019-03-31T11:47:26.764Z,6.50
2019-03-31T11:48:26.735Z,6.20
2019-03-31T11:49:26.725Z,6.10
2019-03-31T11:50:26.716Z,6.00
2019-03-31T11:51:26.702Z,6.40
2019-03-31T11:52:26.709Z,6.40
2019-03-31T11:53:26.678Z,6.10
2019-03-31T11:54:26.665Z,5.90
2019-03-31T11:55:26.654Z,6.20
2019-03-31T11:56:26.642Z,6.00
2019-03-31T11:57:26.631Z,6.20
2019-03-31T11:58:26.640Z,5.90
2019-03-31T11:59:26.608Z,5.50
2019-03-31T12:00:26.596Z,5.70
2019-03-31T12:01:26.619Z,6.10
2019-03-31T12:02:27.712Z,6.00
2019-03-31T12:03:26.579Z,5.80
2019-03-31T12:04:26.553Z,5.80
2019-03-31T12:05:26.544Z,5.50
2019-03-31T12:06:26.528Z,5.50
2019-03-31T12:07:28.114Z,5.50
2019-03-31T12:08:26.522Z,5.50
2019-03-31T12:09:26.492Z,6.10
2019-03-31T12:10:26.480Z,5.80
2019-03-31T12:11:26.468Z,6.30
2019-03-31T12:12:26.458Z,6.00
2019-03-31T12:13:26.495Z,5.80
2019-03-31T12:14:26.435Z,6.00
2019-03-31T12:15:26.426Z,6.20
2019-03-31T12:16:26.422Z,6.00
2019-03-31T12:17:26.401Z,5.80
2019-03-31T12:18:26.387Z,6.20
2019-03-31T12:19:26.395Z,5.70
2019-03-31T12:20:26.367Z,6.40
2019-03-31T12:21:26.352Z,6.30
2019-03-31T12:22:26.342Z,5.90
2019-03-31T12:23:26.332Z,6.00
2019-03-31T12:24:26.341Z,6.60
2019-03-31T12:25:26.316Z,6.20
2019-03-31T12:26:26.299Z,6.20
2019-03-31T12:27:26.283Z,6.60
2019-03-31T12:28:26.279Z,6.20
2019-03-31T12:29:26.284Z,6.60
2019-03-31T12:30:26.268Z,6.70
2019-03-31T12:31:26.238Z,6.20
2019-03-31T12:32:26.228Z,6.30
2019-03-31T12:33:26.216Z,6.40
2019-03-31T12:34:26.206Z,6.30
2019-03-31T12:35:26.210Z,5.90
2019-03-31T12:36:26.186Z,5.90
2019-03-31T12:37:26.175Z,6.50
2019-03-31T12:38:26.158Z,5.60
2019-03-31T12:39:26.147Z,5.40
2019-03-31T12:40:26.154Z,6.00
2019-03-31T12:41:26.124Z,5.70
2019-03-31T12:42:26.112Z,6.00
2019-03-31T12:43:26.102Z,6.00
2019-03-31T12:44:26.090Z,25.50
2019-03-31T12:45:26.075Z,9.90
2019-03-31T12:46:26.093Z,9.10
2019-03-31T12:47:26.055Z,6.30
2019-03-31T12:48:26.044Z,5.50
2019-03-31T12:49:26.030Z,5.70
2019-03-31T12:50:26.020Z,5.70
2019-03-31T12:51:26.028Z,5.50
2019-03-31T12:52:26.002Z,5.40
2019-03-31T12:53:25.989Z,5.20
2019-03-31T12:54:25.976Z,5.30
2019-03-31T12:55:25.965Z,5.80
2019-03-31T12:56:25.967Z,5.30
2019-03-31T12:57:25.939Z,5.50
2019-03-31T12:58:25.931Z,5.50
2019-03-31T12:59:27.462Z,5.60